sensor_id;sensor_type;location;lat;lon;timestamp;P1;durP1;ratioP1;P2;durP2;ratioP2
33690;SDS011;20026;50.058;18.428;2023-04-03T00:00:49;14.80;;;10.02;;
33690;SDS011;20026;50.058;18.428;2023-04-03T00:03:16;16.25;;;10.43;;
33690;SDS011;20026;50.058;18.428;2023-04-03T00:05:42;16.05;;;10.32;;
33690;SDS011;20026;50.058;18.428;2023-04-03T00:08:08;13.80;;;10.88;;
33690;SDS011;20026;50.058;18.428;2023-04-03T00:10:35;16.77;;;11.38;;
33690;SDS011;20026;50.058;18.428;2023-04-03T00:13:02;18.20;;;11.43;;
33690;SDS011;20026;50.058;18.428;2023-04-03T00:15:28;14.30;;;10.60;;
33690;SDS011;20026;50.058;18.428;2023-04-03T00:17:54;19.48;;;12.32;;
33690;SDS011;20026;50.058;18.428;2023-04-03T00:20:20;25.40;;;13.75;;
33690;SDS011;20026;50.058;18.428;2023-04-03T00:22:46;18.92;;;11.38;;
33690;SDS011;20026;50.058;18.428;2023-04-03T00:25:12;24.15;;;14.93;;
33690;SDS011;20026;50.058;18.428;2023-04-03T00:27:38;27.17;;;14.48;;
33690;SDS011;20026;50.058;18.428;2023-04-03T00:30:05;22.15;;;14.38;;
33690;SDS011;20026;50.058;18.428;2023-04-03T00:32:31;18.15;;;13.30;;
33690;SDS011;20026;50.058;18.428;2023-04-03T00:34:58;21.42;;;13.88;;
33690;SDS011;20026;50.058;18.428;2023-04-03T00:37:24;18.10;;;13.38;;
33690;SDS011;20026;50.058;18.428;2023-04-03T00:39:50;25.38;;;15.30;;
33690;SDS011;20026;50.058;18.428;2023-04-03T00:42:16;18.52;;;14.65;;
33690;SDS011;20026;50.058;18.428;2023-04-03T00:47:10;21.40;;;14.30;;
33690;SDS011;20026;50.058;18.428;2023-04-03T00:49:37;18.08;;;11.75;;
33690;SDS011;20026;50.058;18.428;2023-04-03T00:52:04;20.02;;;13.50;;
33690;SDS011;20026;50.058;18.428;2023-04-03T00:54:31;20.10;;;12.25;;
33690;SDS011;20026;50.058;18.428;2023-04-03T00:56:58;18.48;;;13.70;;
33690;SDS011;20026;50.058;18.428;2023-04-03T00:59:37;23.60;;;12.13;;
33690;SDS011;20026;50.058;18.428;2023-04-03T01:02:05;18.75;;;11.85;;
33690;SDS011;20026;50.058;18.428;2023-04-03T01:04:32;20.00;;;13.02;;
33690;SDS011;20026;50.058;18.428;2023-04-03T01:07:00;18.00;;;10.55;;
33690;SDS011;20026;50.058;18.428;2023-04-03T01:09:27;17.83;;;9.97;;
33690;SDS011;20026;50.058;18.428;2023-04-03T01:11:54;14.90;;;9.85;;
33690;SDS011;20026;50.058;18.428;2023-04-03T01:14:20;15.75;;;10.48;;
33690;SDS011;20026;50.058;18.428;2023-04-03T01:16:53;18.58;;;11.48;;
33690;SDS011;20026;50.058;18.428;2023-04-03T01:19:19;17.50;;;10.27;;
33690;SDS011;20026;50.058;18.428;2023-04-03T01:26:46;17.98;;;9.68;;
33690;SDS011;20026;50.058;18.428;2023-04-03T01:29:13;17.13;;;10.88;;
33690;SDS011;20026;50.058;18.428;2023-04-03T01:34:08;13.23;;;8.68;;
33690;SDS011;20026;50.058;18.428;2023-04-03T01:36:35;19.17;;;9.63;;
33690;SDS011;20026;50.058;18.428;2023-04-03T01:39:01;17.75;;;10.18;;
33690;SDS011;20026;50.058;18.428;2023-04-03T01:41:27;13.45;;;8.95;;
33690;SDS011;20026;50.058;18.428;2023-04-03T01:43:53;12.88;;;8.55;;
33690;SDS011;20026;50.058;18.428;2023-04-03T01:46:20;14.50;;;8.48;;
33690;SDS011;20026;50.058;18.428;2023-04-03T01:48:46;17.80;;;9.57;;
33690;SDS011;20026;50.058;18.428;2023-04-03T01:51:12;14.02;;;8.07;;
33690;SDS011;20026;50.058;18.428;2023-04-03T01:53:39;14.43;;;8.95;;
33690;SDS011;20026;50.058;18.428;2023-04-03T01:56:05;15.52;;;8.93;;
33690;SDS011;20026;50.058;18.428;2023-04-03T01:58:31;14.43;;;9.60;;
33690;SDS011;20026;50.058;18.428;2023-04-03T02:00:57;15.60;;;10.00;;
33690;SDS011;20026;50.058;18.428;2023-04-03T02:03:23;15.77;;;9.48;;
33690;SDS011;20026;50.058;18.428;2023-04-03T02:05:49;16.23;;;8.75;;
33690;SDS011;20026;50.058;18.428;2023-04-03T02:08:15;13.98;;;8.30;;
33690;SDS011;20026;50.058;18.428;2023-04-03T02:10:43;10.77;;;6.00;;
33690;SDS011;20026;50.058;18.428;2023-04-03T02:13:09;16.65;;;7.97;;
33690;SDS011;20026;50.058;18.428;2023-04-03T02:15:37;12.88;;;6.60;;
33690;SDS011;20026;50.058;18.428;2023-04-03T02:18:03;13.20;;;6.70;;
33690;SDS011;20026;50.058;18.428;2023-04-03T02:20:33;13.20;;;6.53;;
33690;SDS011;20026;50.058;18.428;2023-04-03T02:23:00;10.55;;;6.18;;
33690;SDS011;20026;50.058;18.428;2023-04-03T02:25:26;16.23;;;7.68;;
33690;SDS011;20026;50.058;18.428;2023-04-03T02:27:52;24.35;;;9.25;;
33690;SDS011;20026;50.058;18.428;2023-04-03T02:30:18;16.75;;;8.18;;
33690;SDS011;20026;50.058;18.428;2023-04-03T02:32:44;14.82;;;6.55;;
33690;SDS011;20026;50.058;18.428;2023-04-03T02:35:11;14.90;;;7.30;;
33690;SDS011;20026;50.058;18.428;2023-04-03T02:37:37;17.15;;;6.80;;
33690;SDS011;20026;50.058;18.428;2023-04-03T02:40:03;18.55;;;6.03;;
33690;SDS011;20026;50.058;18.428;2023-04-03T02:42:30;15.63;;;7.32;;
33690;SDS011;20026;50.058;18.428;2023-04-03T02:44:56;19.42;;;8.18;;
33690;SDS011;20026;50.058;18.428;2023-04-03T02:47:22;22.48;;;7.88;;
33690;SDS011;20026;50.058;18.428;2023-04-03T02:49:48;12.90;;;5.00;;
33690;SDS011;20026;50.058;18.428;2023-04-03T02:52:14;12.85;;;5.32;;
33690;SDS011;20026;50.058;18.428;2023-04-03T02:54:40;16.13;;;6.22;;
33690;SDS011;20026;50.058;18.428;2023-04-03T02:57:06;13.95;;;6.10;;
33690;SDS011;20026;50.058;18.428;2023-04-03T02:59:36;11.30;;;5.50;;
33690;SDS011;20026;50.058;18.428;2023-04-03T03:02:05;18.40;;;7.45;;
33690;SDS011;20026;50.058;18.428;2023-04-03T03:04:31;13.60;;;5.55;;
33690;SDS011;20026;50.058;18.428;2023-04-03T03:06:57;10.93;;;4.20;;
33690;SDS011;20026;50.058;18.428;2023-04-03T03:09:23;9.73;;;3.70;;
33690;SDS011;20026;50.058;18.428;2023-04-03T03:11:50;12.10;;;4.40;;
33690;SDS011;20026;50.058;18.428;2023-04-03T03:14:16;11.82;;;4.38;;
33690;SDS011;20026;50.058;18.428;2023-04-03T03:16:42;13.73;;;4.28;;
33690;SDS011;20026;50.058;18.428;2023-04-03T03:19:08;8.88;;;3.58;;
33690;SDS011;20026;50.058;18.428;2023-04-03T03:21:35;10.45;;;4.13;;
33690;SDS011;20026;50.058;18.428;2023-04-03T03:24:01;12.52;;;4.63;;
33690;SDS011;20026;50.058;18.428;2023-04-03T03:26:27;11.68;;;4.75;;
33690;SDS011;20026;50.058;18.428;2023-04-03T03:28:53;13.25;;;5.05;;
33690;SDS011;20026;50.058;18.428;2023-04-03T03:31:19;10.23;;;4.03;;
33690;SDS011;20026;50.058;18.428;2023-04-03T03:33:45;10.65;;;4.20;;
33690;SDS011;20026;50.058;18.428;2023-04-03T03:36:11;8.32;;;3.92;;
33690;SDS011;20026;50.058;18.428;2023-04-03T03:38:37;12.35;;;4.93;;
33690;SDS011;20026;50.058;18.428;2023-04-03T03:41:03;9.25;;;4.28;;
33690;SDS011;20026;50.058;18.428;2023-04-03T03:43:29;7.85;;;4.07;;
33690;SDS011;20026;50.058;18.428;2023-04-03T03:45:55;10.82;;;4.18;;
33690;SDS011;20026;50.058;18.428;2023-04-03T03:48:22;11.50;;;5.30;;
33690;SDS011;20026;50.058;18.428;2023-04-03T03:50:48;10.30;;;4.45;;
33690;SDS011;20026;50.058;18.428;2023-04-03T03:53:15;12.57;;;5.00;;
33690;SDS011;20026;50.058;18.428;2023-04-03T03:55:41;11.27;;;4.55;;
33690;SDS011;20026;50.058;18.428;2023-04-03T03:58:07;8.73;;;4.13;;
33690;SDS011;20026;50.058;18.428;2023-04-03T04:00:33;12.77;;;3.88;;
33690;SDS011;20026;50.058;18.428;2023-04-03T04:02:59;19.08;;;7.10;;
33690;SDS011;20026;50.058;18.428;2023-04-03T04:05:25;19.42;;;7.07;;
33690;SDS011;20026;50.058;18.428;2023-04-03T04:07:51;18.55;;;7.55;;
33690;SDS011;20026;50.058;18.428;2023-04-03T04:10:17;15.30;;;5.90;;
33690;SDS011;20026;50.058;18.428;2023-04-03T04:12:43;10.73;;;4.53;;
33690;SDS011;20026;50.058;18.428;2023-04-03T04:15:10;20.88;;;7.20;;
33690;SDS011;20026;50.058;18.428;2023-04-03T04:17:36;23.48;;;9.05;;
33690;SDS011;20026;50.058;18.428;2023-04-03T04:20:02;23.17;;;8.27;;
33690;SDS011;20026;50.058;18.428;2023-04-03T04:22:29;21.52;;;8.43;;
33690;SDS011;20026;50.058;18.428;2023-04-03T04:24:56;20.02;;;7.03;;
33690;SDS011;20026;50.058;18.428;2023-04-03T04:27:22;14.32;;;5.63;;
33690;SDS011;20026;50.058;18.428;2023-04-03T04:29:48;19.05;;;7.03;;
33690;SDS011;20026;50.058;18.428;2023-04-03T04:32:14;22.20;;;7.43;;
33690;SDS011;20026;50.058;18.428;2023-04-03T04:34:40;20.02;;;7.28;;
33690;SDS011;20026;50.058;18.428;2023-04-03T04:37:06;14.48;;;5.10;;
33690;SDS011;20026;50.058;18.428;2023-04-03T04:39:32;20.73;;;7.55;;
33690;SDS011;20026;50.058;18.428;2023-04-03T04:44:57;18.70;;;7.35;;
33690;SDS011;20026;50.058;18.428;2023-04-03T04:47:23;16.85;;;6.63;;
33690;SDS011;20026;50.058;18.428;2023-04-03T04:49:49;16.95;;;7.32;;
33690;SDS011;20026;50.058;18.428;2023-04-03T04:52:15;19.35;;;7.32;;
33690;SDS011;20026;50.058;18.428;2023-04-03T04:54:41;24.67;;;8.50;;
33690;SDS011;20026;50.058;18.428;2023-04-03T04:57:07;28.63;;;9.98;;
33690;SDS011;20026;50.058;18.428;2023-04-03T04:59:33;30.85;;;7.90;;
33690;SDS011;20026;50.058;18.428;2023-04-03T05:01:59;19.33;;;7.18;;
33690;SDS011;20026;50.058;18.428;2023-04-03T05:04:25;19.55;;;7.88;;
33690;SDS011;20026;50.058;18.428;2023-04-03T05:06:51;29.58;;;12.48;;
33690;SDS011;20026;50.058;18.428;2023-04-03T05:09:17;26.45;;;12.00;;
33690;SDS011;20026;50.058;18.428;2023-04-03T05:11:45;21.05;;;8.82;;
33690;SDS011;20026;50.058;18.428;2023-04-03T05:14:11;19.42;;;8.65;;
33690;SDS011;20026;50.058;18.428;2023-04-03T05:16:37;16.25;;;6.75;;
33690;SDS011;20026;50.058;18.428;2023-04-03T05:19:03;21.48;;;8.20;;
33690;SDS011;20026;50.058;18.428;2023-04-03T05:21:30;19.55;;;7.97;;
33690;SDS011;20026;50.058;18.428;2023-04-03T05:24:00;24.63;;;10.15;;
33690;SDS011;20026;50.058;18.428;2023-04-03T05:26:30;32.20;;;12.88;;
33690;SDS011;20026;50.058;18.428;2023-04-03T05:28:56;55.50;;;17.52;;
33690;SDS011;20026;50.058;18.428;2023-04-03T05:31:22;20.73;;;9.48;;
33690;SDS011;20026;50.058;18.428;2023-04-03T05:33:49;26.67;;;10.73;;
33690;SDS011;20026;50.058;18.428;2023-04-03T05:36:15;21.33;;;9.93;;
33690;SDS011;20026;50.058;18.428;2023-04-03T05:38:41;27.83;;;9.60;;
33690;SDS011;20026;50.058;18.428;2023-04-03T05:41:07;22.75;;;9.27;;
33690;SDS011;20026;50.058;18.428;2023-04-03T05:43:33;17.13;;;5.57;;
33690;SDS011;20026;50.058;18.428;2023-04-03T05:46:02;19.58;;;7.78;;
33690;SDS011;20026;50.058;18.428;2023-04-03T05:48:28;24.10;;;10.88;;
33690;SDS011;20026;50.058;18.428;2023-04-03T05:50:54;24.30;;;8.40;;
33690;SDS011;20026;50.058;18.428;2023-04-03T05:56:06;13.88;;;5.03;;
33690;SDS011;20026;50.058;18.428;2023-04-03T05:58:32;14.95;;;7.43;;
33690;SDS011;20026;50.058;18.428;2023-04-03T06:00:58;19.48;;;8.68;;
33690;SDS011;20026;50.058;18.428;2023-04-03T06:03:24;17.95;;;6.28;;
33690;SDS011;20026;50.058;18.428;2023-04-03T06:05:51;15.45;;;6.00;;
33690;SDS011;20026;50.058;18.428;2023-04-03T06:08:17;18.50;;;6.78;;
33690;SDS011;20026;50.058;18.428;2023-04-03T06:10:43;11.98;;;4.78;;
33690;SDS011;20026;50.058;18.428;2023-04-03T06:13:09;8.30;;;3.20;;
33690;SDS011;20026;50.058;18.428;2023-04-03T06:15:36;8.05;;;3.40;;
33690;SDS011;20026;50.058;18.428;2023-04-03T06:18:03;10.15;;;3.72;;
33690;SDS011;20026;50.058;18.428;2023-04-03T06:20:29;11.35;;;4.03;;
33690;SDS011;20026;50.058;18.428;2023-04-03T06:22:56;7.50;;;3.10;;
33690;SDS011;20026;50.058;18.428;2023-04-03T06:25:22;6.43;;;2.55;;
33690;SDS011;20026;50.058;18.428;2023-04-03T06:27:48;7.75;;;3.30;;
33690;SDS011;20026;50.058;18.428;2023-04-03T06:30:14;7.65;;;4.05;;
33690;SDS011;20026;50.058;18.428;2023-04-03T06:32:40;11.32;;;3.30;;
33690;SDS011;20026;50.058;18.428;2023-04-03T06:35:06;9.50;;;4.05;;
33690;SDS011;20026;50.058;18.428;2023-04-03T06:37:32;13.70;;;4.88;;
33690;SDS011;20026;50.058;18.428;2023-04-03T06:39:58;9.65;;;4.72;;
33690;SDS011;20026;50.058;18.428;2023-04-03T06:42:25;11.63;;;3.75;;
33690;SDS011;20026;50.058;18.428;2023-04-03T06:44:51;9.25;;;4.03;;
33690;SDS011;20026;50.058;18.428;2023-04-03T06:47:17;8.68;;;3.03;;
33690;SDS011;20026;50.058;18.428;2023-04-03T06:49:44;12.20;;;4.35;;
33690;SDS011;20026;50.058;18.428;2023-04-03T06:52:10;8.63;;;4.45;;
33690;SDS011;20026;50.058;18.428;2023-04-03T06:54:37;8.52;;;3.42;;
33690;SDS011;20026;50.058;18.428;2023-04-03T06:57:03;9.40;;;3.70;;
33690;SDS011;20026;50.058;18.428;2023-04-03T06:59:29;6.72;;;3.15;;
33690;SDS011;20026;50.058;18.428;2023-04-03T07:01:55;6.38;;;2.35;;
33690;SDS011;20026;50.058;18.428;2023-04-03T07:04:21;7.28;;;2.47;;
33690;SDS011;20026;50.058;18.428;2023-04-03T07:06:47;8.13;;;2.88;;
33690;SDS011;20026;50.058;18.428;2023-04-03T07:09:14;20.55;;;8.55;;
33690;SDS011;20026;50.058;18.428;2023-04-03T07:11:40;8.38;;;3.92;;
33690;SDS011;20026;50.058;18.428;2023-04-03T07:14:06;9.40;;;5.00;;
33690;SDS011;20026;50.058;18.428;2023-04-03T07:16:33;8.38;;;3.88;;
33690;SDS011;20026;50.058;18.428;2023-04-03T07:19:00;7.15;;;3.20;;
33690;SDS011;20026;50.058;18.428;2023-04-03T07:21:26;9.88;;;4.68;;
33690;SDS011;20026;50.058;18.428;2023-04-03T07:23:53;6.75;;;2.88;;
33690;SDS011;20026;50.058;18.428;2023-04-03T07:26:19;12.00;;;5.22;;
33690;SDS011;20026;50.058;18.428;2023-04-03T07:28:46;8.98;;;3.72;;
33690;SDS011;20026;50.058;18.428;2023-04-03T07:31:13;7.35;;;2.88;;
33690;SDS011;20026;50.058;18.428;2023-04-03T07:33:40;8.63;;;3.00;;
33690;SDS011;20026;50.058;18.428;2023-04-03T07:36:07;6.93;;;4.20;;
33690;SDS011;20026;50.058;18.428;2023-04-03T07:38:34;8.20;;;3.00;;
33690;SDS011;20026;50.058;18.428;2023-04-03T07:41:01;7.88;;;2.88;;
33690;SDS011;20026;50.058;18.428;2023-04-03T07:43:27;5.03;;;2.60;;
33690;SDS011;20026;50.058;18.428;2023-04-03T07:45:54;8.40;;;2.60;;
33690;SDS011;20026;50.058;18.428;2023-04-03T07:48:24;7.88;;;3.63;;
33690;SDS011;20026;50.058;18.428;2023-04-03T07:50:50;8.00;;;4.53;;
33690;SDS011;20026;50.058;18.428;2023-04-03T07:53:17;8.48;;;3.47;;
33690;SDS011;20026;50.058;18.428;2023-04-03T07:55:45;9.02;;;3.38;;
33690;SDS011;20026;50.058;18.428;2023-04-03T07:58:13;7.00;;;3.17;;
33690;SDS011;20026;50.058;18.428;2023-04-03T08:00:39;8.68;;;4.60;;
33690;SDS011;20026;50.058;18.428;2023-04-03T08:03:06;12.07;;;5.03;;
33690;SDS011;20026;50.058;18.428;2023-04-03T08:05:36;9.43;;;4.00;;
33690;SDS011;20026;50.058;18.428;2023-04-03T08:08:02;10.23;;;4.45;;
33690;SDS011;20026;50.058;18.428;2023-04-03T08:10:29;10.05;;;4.45;;
33690;SDS011;20026;50.058;18.428;2023-04-03T08:12:55;13.23;;;5.50;;
33690;SDS011;20026;50.058;18.428;2023-04-03T08:15:21;8.43;;;3.95;;
33690;SDS011;20026;50.058;18.428;2023-04-03T08:17:47;10.73;;;4.03;;
33690;SDS011;20026;50.058;18.428;2023-04-03T08:20:14;13.07;;;6.32;;
33690;SDS011;20026;50.058;18.428;2023-04-03T08:22:40;12.02;;;4.60;;
33690;SDS011;20026;50.058;18.428;2023-04-03T08:25:06;7.70;;;3.55;;
33690;SDS011;20026;50.058;18.428;2023-04-03T08:27:32;34.10;;;11.80;;
33690;SDS011;20026;50.058;18.428;2023-04-03T08:29:58;14.05;;;6.22;;
33690;SDS011;20026;50.058;18.428;2023-04-03T08:32:24;7.25;;;3.03;;
33690;SDS011;20026;50.058;18.428;2023-04-03T08:34:52;44.42;;;12.82;;
33690;SDS011;20026;50.058;18.428;2023-04-03T08:37:18;10.02;;;4.10;;
33690;SDS011;20026;50.058;18.428;2023-04-03T08:39:44;37.65;;;14.20;;
33690;SDS011;20026;50.058;18.428;2023-04-03T08:47:39;16.77;;;5.85;;
33690;SDS011;20026;50.058;18.428;2023-04-03T08:50:28;20.90;;;8.15;;
33690;SDS011;20026;50.058;18.428;2023-04-03T08:52:57;5.57;;;3.00;;
33690;SDS011;20026;50.058;18.428;2023-04-03T08:55:34;23.30;;;8.23;;
33690;SDS011;20026;50.058;18.428;2023-04-03T08:58:09;24.48;;;8.55;;
33690;SDS011;20026;50.058;18.428;2023-04-03T09:03:38;12.45;;;5.28;;
33690;SDS011;20026;50.058;18.428;2023-04-03T09:06:05;11.77;;;4.70;;
33690;SDS011;20026;50.058;18.428;2023-04-03T09:08:33;13.43;;;5.68;;
33690;SDS011;20026;50.058;18.428;2023-04-03T09:11:09;12.38;;;4.47;;
33690;SDS011;20026;50.058;18.428;2023-04-03T09:13:43;5.13;;;2.55;;
33690;SDS011;20026;50.058;18.428;2023-04-03T09:16:25;9.13;;;3.97;;
33690;SDS011;20026;50.058;18.428;2023-04-03T09:18:57;7.60;;;3.45;;
33690;SDS011;20026;50.058;18.428;2023-04-03T09:21:30;14.45;;;5.72;;
33690;SDS011;20026;50.058;18.428;2023-04-03T09:23:58;13.90;;;6.07;;
33690;SDS011;20026;50.058;18.428;2023-04-03T09:26:29;12.43;;;5.05;;
33690;SDS011;20026;50.058;18.428;2023-04-03T09:28:57;14.70;;;5.55;;
33690;SDS011;20026;50.058;18.428;2023-04-03T09:31:26;19.45;;;7.63;;
33690;SDS011;20026;50.058;18.428;2023-04-03T09:33:54;5.70;;;3.10;;
33690;SDS011;20026;50.058;18.428;2023-04-03T09:39:07;18.52;;;5.43;;
33690;SDS011;20026;50.058;18.428;2023-04-03T09:41:35;10.68;;;4.45;;
33690;SDS011;20026;50.058;18.428;2023-04-03T09:44:01;15.13;;;6.47;;
33690;SDS011;20026;50.058;18.428;2023-04-03T09:46:32;10.68;;;4.53;;
33690;SDS011;20026;50.058;18.428;2023-04-03T09:48:59;6.72;;;3.88;;
33690;SDS011;20026;50.058;18.428;2023-04-03T09:51:27;9.73;;;5.03;;
33690;SDS011;20026;50.058;18.428;2023-04-03T09:53:53;6.63;;;3.50;;
33690;SDS011;20026;50.058;18.428;2023-04-03T09:56:20;11.90;;;4.78;;
33690;SDS011;20026;50.058;18.428;2023-04-03T10:04:03;13.13;;;3.38;;
33690;SDS011;20026;50.058;18.428;2023-04-03T10:06:31;8.95;;;4.30;;
33690;SDS011;20026;50.058;18.428;2023-04-03T10:09:01;4.63;;;2.20;;
33690;SDS011;20026;50.058;18.428;2023-04-03T10:11:29;6.63;;;3.47;;
33690;SDS011;20026;50.058;18.428;2023-04-03T10:13:57;7.72;;;3.38;;
33690;SDS011;20026;50.058;18.428;2023-04-03T10:16:28;15.27;;;5.93;;
33690;SDS011;20026;50.058;18.428;2023-04-03T10:19:03;21.55;;;11.10;;
33690;SDS011;20026;50.058;18.428;2023-04-03T10:21:43;19.98;;;5.28;;
33690;SDS011;20026;50.058;18.428;2023-04-03T10:24:14;6.55;;;2.42;;
33690;SDS011;20026;50.058;18.428;2023-04-03T10:26:55;14.07;;;6.45;;
33690;SDS011;20026;50.058;18.428;2023-04-03T10:34:40;9.98;;;3.92;;
33690;SDS011;20026;50.058;18.428;2023-04-03T10:37:12;4.43;;;2.60;;
33690;SDS011;20026;50.058;18.428;2023-04-03T10:42:23;6.93;;;2.63;;
33690;SDS011;20026;50.058;18.428;2023-04-03T10:52:37;6.63;;;2.67;;
33690;SDS011;20026;50.058;18.428;2023-04-03T10:57:54;10.15;;;4.50;;
33690;SDS011;20026;50.058;18.428;2023-04-03T11:00:24;5.00;;;2.40;;
33690;SDS011;20026;50.058;18.428;2023-04-03T11:02:54;7.45;;;2.83;;
33690;SDS011;20026;50.058;18.428;2023-04-03T11:05:26;11.00;;;4.90;;
33690;SDS011;20026;50.058;18.428;2023-04-03T11:07:54;10.15;;;3.40;;
33690;SDS011;20026;50.058;18.428;2023-04-03T11:10:23;8.93;;;3.08;;
33690;SDS011;20026;50.058;18.428;2023-04-03T11:13:13;7.60;;;3.53;;
33690;SDS011;20026;50.058;18.428;2023-04-03T11:15:38;6.78;;;3.60;;
33690;SDS011;20026;50.058;18.428;2023-04-03T11:18:06;21.48;;;9.77;;
33690;SDS011;20026;50.058;18.428;2023-04-03T11:20:35;8.18;;;2.88;;
33690;SDS011;20026;50.058;18.428;2023-04-03T11:23:13;5.63;;;2.22;;
33690;SDS011;20026;50.058;18.428;2023-04-03T11:25:43;2.55;;;1.80;;
33690;SDS011;20026;50.058;18.428;2023-04-03T11:28:11;11.88;;;3.92;;
33690;SDS011;20026;50.058;18.428;2023-04-03T11:38:48;10.88;;;3.60;;
33690;SDS011;20026;50.058;18.428;2023-04-03T11:41:16;4.35;;;1.85;;
33690;SDS011;20026;50.058;18.428;2023-04-03T11:43:54;7.32;;;3.05;;
33690;SDS011;20026;50.058;18.428;2023-04-03T11:46:48;5.75;;;2.67;;
33690;SDS011;20026;50.058;18.428;2023-04-03T11:52:07;10.57;;;6.97;;
33690;SDS011;20026;50.058;18.428;2023-04-03T11:57:22;6.28;;;3.25;;
33690;SDS011;20026;50.058;18.428;2023-04-03T11:59:48;10.25;;;5.78;;
33690;SDS011;20026;50.058;18.428;2023-04-03T12:02:36;7.28;;;2.60;;
33690;SDS011;20026;50.058;18.428;2023-04-03T12:10:32;23.40;;;4.32;;
33690;SDS011;20026;50.058;18.428;2023-04-03T12:12:58;9.20;;;3.13;;
33690;SDS011;20026;50.058;18.428;2023-04-03T12:25:51;10.07;;;2.70;;
33690;SDS011;20026;50.058;18.428;2023-04-03T12:28:17;4.97;;;2.60;;
33690;SDS011;20026;50.058;18.428;2023-04-03T12:30:43;7.90;;;2.50;;
33690;SDS011;20026;50.058;18.428;2023-04-03T12:36:05;8.32;;;3.30;;
33690;SDS011;20026;50.058;18.428;2023-04-03T12:46:21;8.18;;;2.95;;
33690;SDS011;20026;50.058;18.428;2023-04-03T12:48:48;6.85;;;2.50;;
33690;SDS011;20026;50.058;18.428;2023-04-03T12:51:19;5.05;;;2.38;;
33690;SDS011;20026;50.058;18.428;2023-04-03T12:53:45;31.52;;;5.25;;
33690;SDS011;20026;50.058;18.428;2023-04-03T12:56:18;12.85;;;4.68;;
33690;SDS011;20026;50.058;18.428;2023-04-03T12:58:46;11.05;;;4.70;;
33690;SDS011;20026;50.058;18.428;2023-04-03T13:01:13;6.20;;;2.42;;
33690;SDS011;20026;50.058;18.428;2023-04-03T13:03:43;10.15;;;3.30;;
33690;SDS011;20026;50.058;18.428;2023-04-03T13:06:10;9.70;;;4.43;;
33690;SDS011;20026;50.058;18.428;2023-04-03T13:08:48;9.75;;;3.63;;
33690;SDS011;20026;50.058;18.428;2023-04-03T13:11:14;9.40;;;4.35;;
33690;SDS011;20026;50.058;18.428;2023-04-03T13:13:53;11.25;;;5.85;;
33690;SDS011;20026;50.058;18.428;2023-04-03T13:16:19;5.82;;;2.33;;
33690;SDS011;20026;50.058;18.428;2023-04-03T13:18:50;11.35;;;5.93;;
33690;SDS011;20026;50.058;18.428;2023-04-03T13:21:20;14.10;;;6.40;;
33690;SDS011;20026;50.058;18.428;2023-04-03T13:23:48;5.30;;;2.20;;
33690;SDS011;20026;50.058;18.428;2023-04-03T13:26:16;11.77;;;5.93;;
33690;SDS011;20026;50.058;18.428;2023-04-03T13:28:43;13.05;;;6.00;;
33690;SDS011;20026;50.058;18.428;2023-04-03T13:33:53;16.40;;;6.80;;
33690;SDS011;20026;50.058;18.428;2023-04-03T13:36:22;8.48;;;4.25;;
33690;SDS011;20026;50.058;18.428;2023-04-03T13:41:26;9.70;;;4.55;;
33690;SDS011;20026;50.058;18.428;2023-04-03T13:43:54;16.35;;;7.88;;
33690;SDS011;20026;50.058;18.428;2023-04-03T13:46:27;15.05;;;7.43;;
33690;SDS011;20026;50.058;18.428;2023-04-03T13:48:55;21.38;;;8.35;;
33690;SDS011;20026;50.058;18.428;2023-04-03T13:51:23;22.05;;;9.00;;
33690;SDS011;20026;50.058;18.428;2023-04-03T13:56:17;27.92;;;7.80;;
33690;SDS011;20026;50.058;18.428;2023-04-03T13:58:52;8.00;;;4.07;;
33690;SDS011;20026;50.058;18.428;2023-04-03T14:01:20;10.73;;;5.25;;
33690;SDS011;20026;50.058;18.428;2023-04-03T14:03:51;10.95;;;5.28;;
33690;SDS011;20026;50.058;18.428;2023-04-03T14:06:17;11.75;;;6.55;;
33690;SDS011;20026;50.058;18.428;2023-04-03T14:08:43;10.13;;;5.25;;
33690;SDS011;20026;50.058;18.428;2023-04-03T14:11:14;7.50;;;2.80;;
33690;SDS011;20026;50.058;18.428;2023-04-03T14:13:41;6.07;;;3.00;;
33690;SDS011;20026;50.058;18.428;2023-04-03T14:16:08;9.50;;;3.78;;
33690;SDS011;20026;50.058;18.428;2023-04-03T14:18:37;11.18;;;5.22;;
33690;SDS011;20026;50.058;18.428;2023-04-03T14:21:03;10.57;;;4.03;;
33690;SDS011;20026;50.058;18.428;2023-04-03T14:23:29;17.15;;;5.40;;
33690;SDS011;20026;50.058;18.428;2023-04-03T14:25:55;9.40;;;3.90;;
33690;SDS011;20026;50.058;18.428;2023-04-03T14:28:22;9.38;;;4.70;;
33690;SDS011;20026;50.058;18.428;2023-04-03T14:30:49;9.80;;;3.58;;
33690;SDS011;20026;50.058;18.428;2023-04-03T14:33:17;12.32;;;4.22;;
33690;SDS011;20026;50.058;18.428;2023-04-03T14:35:44;14.68;;;5.45;;
33690;SDS011;20026;50.058;18.428;2023-04-03T14:38:24;9.38;;;4.07;;
33690;SDS011;20026;50.058;18.428;2023-04-03T14:40:51;9.65;;;4.20;;
33690;SDS011;20026;50.058;18.428;2023-04-03T14:43:17;12.45;;;4.15;;
33690;SDS011;20026;50.058;18.428;2023-04-03T14:45:43;10.65;;;3.42;;
33690;SDS011;20026;50.058;18.428;2023-04-03T14:48:12;11.23;;;3.75;;
33690;SDS011;20026;50.058;18.428;2023-04-03T14:50:41;10.57;;;3.70;;
33690;SDS011;20026;50.058;18.428;2023-04-03T14:53:07;10.77;;;4.18;;
33690;SDS011;20026;50.058;18.428;2023-04-03T14:55:36;16.17;;;5.90;;
33690;SDS011;20026;50.058;18.428;2023-04-03T14:58:02;11.13;;;4.32;;
33690;SDS011;20026;50.058;18.428;2023-04-03T15:00:28;11.75;;;5.32;;
33690;SDS011;20026;50.058;18.428;2023-04-03T15:02:54;15.10;;;6.65;;
33690;SDS011;20026;50.058;18.428;2023-04-03T15:05:20;44.38;;;16.05;;
33690;SDS011;20026;50.058;18.428;2023-04-03T15:07:50;22.92;;;10.93;;
33690;SDS011;20026;50.058;18.428;2023-04-03T15:10:19;23.55;;;9.52;;
33690;SDS011;20026;50.058;18.428;2023-04-03T15:12:46;8.27;;;4.55;;
33690;SDS011;20026;50.058;18.428;2023-04-03T15:15:12;10.55;;;5.53;;
33690;SDS011;20026;50.058;18.428;2023-04-03T15:17:38;23.35;;;9.43;;
33690;SDS011;20026;50.058;18.428;2023-04-03T15:20:19;16.52;;;7.68;;
33690;SDS011;20026;50.058;18.428;2023-04-03T15:22:45;16.27;;;6.82;;
33690;SDS011;20026;50.058;18.428;2023-04-03T15:25:11;14.63;;;5.57;;
33690;SDS011;20026;50.058;18.428;2023-04-03T15:27:39;9.75;;;4.30;;
33690;SDS011;20026;50.058;18.428;2023-04-03T15:30:11;9.82;;;4.28;;
33690;SDS011;20026;50.058;18.428;2023-04-03T15:32:38;12.25;;;5.63;;
33690;SDS011;20026;50.058;18.428;2023-04-03T15:35:05;26.48;;;9.82;;
33690;SDS011;20026;50.058;18.428;2023-04-03T15:37:31;12.15;;;5.82;;
33690;SDS011;20026;50.058;18.428;2023-04-03T15:39:57;21.20;;;10.50;;
33690;SDS011;20026;50.058;18.428;2023-04-03T15:42:23;12.13;;;6.07;;
33690;SDS011;20026;50.058;18.428;2023-04-03T15:44:49;26.25;;;9.05;;
33690;SDS011;20026;50.058;18.428;2023-04-03T15:47:15;16.05;;;6.10;;
33690;SDS011;20026;50.058;18.428;2023-04-03T15:49:44;22.15;;;7.50;;
33690;SDS011;20026;50.058;18.428;2023-04-03T15:52:10;48.17;;;16.17;;
33690;SDS011;20026;50.058;18.428;2023-04-03T15:54:36;11.35;;;4.60;;
33690;SDS011;20026;50.058;18.428;2023-04-03T15:57:02;52.55;;;19.25;;
33690;SDS011;20026;50.058;18.428;2023-04-03T15:59:28;14.18;;;6.90;;
33690;SDS011;20026;50.058;18.428;2023-04-03T16:01:55;20.20;;;8.55;;
33690;SDS011;20026;50.058;18.428;2023-04-03T16:04:21;50.38;;;19.80;;